createdAt,value
2022-08-26T00:04:56.618Z,20.20
2022-08-26T00:11:39.443Z,20.10
2022-08-26T00:18:23.279Z,20.10
2022-08-26T00:25:08.939Z,20.00
2022-08-26T00:31:51.949Z,19.90
2022-08-26T00:38:34.981Z,19.84
2022-08-26T00:45:13.158Z,19.80
2022-08-26T00:51:51.293Z,19.72
2022-08-26T00:58:34.176Z,19.70
2022-08-26T01:05:09.937Z,19.62
2022-08-26T01:11:52.663Z,19.60
2022-08-26T01:18:35.271Z,19.50
2022-08-26T01:25:18.124Z,19.50
2022-08-26T01:32:00.927Z,19.44
2022-08-26T01:38:43.625Z,19.40
2022-08-26T01:45:29.054Z,19.40
2022-08-26T01:52:11.995Z,19.30
2022-08-26T01:58:55.721Z,19.30
2022-08-26T02:05:39.342Z,19.20
2022-08-26T02:12:21.936Z,19.20
2022-08-26T02:19:04.900Z,19.20
2022-08-26T02:25:58.354Z,19.20
2022-08-26T02:32:41.264Z,19.20
2022-08-26T02:39:23.986Z,19.20
2022-08-26T02:45:56.373Z,19.12
2022-08-26T02:52:37.689Z,19.10
2022-08-26T02:59:22.926Z,19.00
2022-08-26T03:06:07.388Z,19.00
2022-08-26T03:12:52.259Z,19.00
2022-08-26T03:19:35.176Z,18.90
2022-08-26T03:26:04.958Z,18.82
2022-08-26T03:32:46.069Z,18.80
2022-08-26T03:38:37.798Z,18.76
2022-08-26T03:45:20.250Z,18.70
2022-08-26T03:51:51.900Z,18.70
2022-08-26T03:58:34.914Z,18.70
2022-08-26T04:05:17.583Z,18.72
2022-08-26T04:11:58.900Z,18.74
2022-08-26T04:18:46.466Z,18.80
2022-08-26T04:25:29.734Z,18.80
2022-08-26T04:32:06.251Z,18.90
2022-08-26T04:38:49.174Z,19.10
2022-08-26T04:45:12.309Z,19.20
2022-08-26T04:51:55.038Z,19.20
2022-08-26T04:58:38.749Z,19.20
2022-08-26T05:05:21.528Z,19.30
2022-08-26T05:12:04.245Z,19.40
2022-08-26T05:18:47.698Z,19.46
2022-08-26T05:25:10.242Z,19.60
2022-08-26T05:31:53.427Z,19.80
2022-08-26T05:38:39.011Z,19.92
2022-08-26T05:45:21.933Z,20.20
2022-08-26T05:52:05.696Z,20.40
2022-08-26T05:58:48.603Z,20.62
2022-08-26T06:05:35.353Z,20.90
2022-08-26T06:12:21.179Z,21.10
2022-08-26T06:18:45.336Z,21.30
2022-08-26T06:25:26.910Z,21.50
2022-08-26T06:32:10.675Z,21.78
2022-08-26T06:38:53.739Z,21.90
2022-08-26T06:45:36.485Z,22.10
2022-08-26T06:52:01.427Z,22.30
2022-08-26T06:58:24.133Z,22.50
2022-08-26T07:04:57.327Z,22.70
2022-08-26T07:11:01.879Z,22.90
2022-08-26T07:17:32.562Z,23.10
2022-08-26T07:24:16.574Z,23.40
2022-08-26T07:30:38.641Z,23.56
2022-08-26T07:37:04.073Z,23.80
2022-08-26T07:43:08.187Z,23.90
2022-08-26T07:49:06.172Z,24.10
2022-08-26T07:55:36.157Z,24.20
2022-08-26T08:02:10.445Z,24.30
2022-08-26T08:08:50.932Z,24.60
2022-08-26T08:15:16.002Z,24.80
2022-08-26T08:21:52.232Z,25.00
2022-08-26T08:28:18.997Z,25.20
2022-08-26T08:41:29.859Z,25.60
2022-08-26T08:48:04.250Z,25.80
2022-08-26T08:54:28.194Z,25.96
2022-08-26T09:00:54.484Z,26.20
2022-08-26T09:07:23.041Z,26.30
2022-08-26T09:13:49.358Z,26.50
2022-08-26T09:20:47.527Z,26.70
2022-08-26T09:27:24.087Z,27.00
2022-08-26T09:33:59.580Z,27.20
2022-08-26T09:40:29.024Z,27.40
2022-08-26T09:46:58.941Z,27.52
2022-08-26T09:53:25.177Z,27.70
2022-08-26T09:59:40.279Z,27.80
2022-08-26T10:05:50.888Z,28.00
2022-08-26T10:12:12.317Z,28.10
2022-08-26T10:18:55.662Z,28.20
2022-08-26T10:25:33.964Z,28.34
2022-08-26T10:32:04.239Z,28.40
2022-08-26T10:38:21.988Z,28.50
2022-08-26T10:44:53.531Z,28.54
2022-08-26T10:51:41.389Z,28.60
2022-08-26T10:58:29.115Z,28.70
2022-08-26T11:05:20.046Z,28.80
2022-08-26T11:11:23.914Z,29.00
2022-08-26T11:17:40.202Z,29.02
2022-08-26T11:24:06.956Z,29.10
2022-08-26T11:30:58.444Z,29.12
2022-08-26T11:37:37.380Z,29.20
2022-08-26T11:44:14.593Z,29.30
2022-08-26T11:50:48.911Z,29.40
2022-08-26T11:57:24.865Z,29.50
2022-08-26T12:03:41.845Z,29.60
2022-08-26T12:10:13.561Z,29.60
2022-08-26T12:16:49.111Z,29.66
2022-08-26T12:23:13.197Z,29.70
2022-08-26T12:29:48.399Z,29.70
2022-08-26T12:35:51.426Z,29.70
2022-08-26T12:42:01.158Z,29.70
2022-08-26T12:48:15.367Z,29.70
2022-08-26T12:54:09.661Z,29.80
2022-08-26T12:59:39.392Z,29.70
2022-08-26T13:05:23.903Z,29.70
2022-08-26T13:11:22.823Z,29.70
2022-08-26T13:17:07.874Z,29.70
2022-08-26T13:23:13.077Z,29.70
2022-08-26T13:29:39.884Z,29.70
2022-08-26T13:35:21.219Z,29.70
2022-08-26T13:40:54.461Z,29.70
2022-08-26T13:46:40.061Z,29.66
2022-08-26T13:52:30.815Z,29.70
2022-08-26T13:58:04.500Z,29.70
2022-08-26T14:04:12.484Z,29.70
2022-08-26T14:09:46.585Z,29.60
2022-08-26T14:15:35.653Z,29.50
2022-08-26T14:21:20.749Z,29.50
2022-08-26T14:27:54.269Z,29.40
2022-08-26T14:33:23.808Z,29.30
2022-08-26T14:39:56.948Z,29.24
2022-08-26T14:46:23.089Z,29.10
2022-08-26T14:52:23.909Z,29.06
2022-08-26T14:58:16.838Z,29.00
2022-08-26T15:04:10.279Z,28.96
2022-08-26T15:10:14.155Z,28.90
2022-08-26T15:16:00.535Z,28.90
2022-08-26T15:22:12.877Z,28.80
2022-08-26T15:28:38.831Z,28.80
2022-08-26T15:35:05.551Z,28.70
2022-08-26T15:41:30.942Z,28.60
2022-08-26T15:48:23.273Z,28.44
2022-08-26T15:54:01.272Z,28.40
2022-08-26T16:00:01.585Z,28.30
2022-08-26T16:06:07.129Z,28.30
2022-08-26T16:15:21.977Z,28.10
2022-08-26T16:21:51.556Z,28.00
2022-08-26T16:28:16.986Z,27.88
2022-08-26T16:34:56.455Z,27.70
2022-08-26T16:41:27.535Z,27.50
2022-08-26T16:47:21.701Z,27.40
2022-08-26T16:59:39.491Z,27.10
2022-08-26T17:06:21.505Z,26.80
2022-08-26T17:12:32.905Z,26.60
2022-08-26T17:18:44.710Z,26.40
2022-08-26T17:25:26.097Z,26.20
2022-08-26T17:32:29.261Z,26.00
2022-08-26T17:39:32.570Z,25.74
2022-08-26T17:46:38.530Z,25.50
2022-08-26T17:52:30.696Z,25.20
2022-08-26T17:58:47.980Z,25.04
2022-08-26T18:05:54.423Z,24.80
2022-08-26T18:12:33.279Z,24.60
2022-08-26T18:19:35.791Z,24.40
2022-08-26T18:26:39.708Z,24.28
2022-08-26T18:33:25.735Z,24.10
2022-08-26T18:40:23.294Z,23.94
2022-08-26T18:47:26.364Z,23.80
2022-08-26T18:54:29.265Z,23.70
2022-08-26T19:01:33.063Z,23.60
2022-08-26T19:08:36.194Z,23.42
2022-08-26T19:15:28.601Z,23.30
2022-08-26T19:22:24.342Z,23.20
2022-08-26T19:29:26.761Z,23.10
2022-08-26T19:36:30.317Z,23.00
2022-08-26T19:43:14.835Z,22.80
2022-08-26T19:50:18.044Z,22.80
2022-08-26T19:57:15.177Z,22.64
2022-08-26T20:04:18.308Z,22.40
2022-08-26T20:11:21.360Z,22.30
2022-08-26T20:18:24.395Z,22.30
2022-08-26T20:25:27.720Z,22.20
2022-08-26T20:32:35.012Z,22.20
2022-08-26T20:39:26.057Z,22.10
2022-08-26T20:46:29.623Z,21.90
2022-08-26T20:53:25.788Z,21.70
2022-08-26T21:00:28.088Z,21.50
2022-08-26T21:07:32.073Z,21.40
2022-08-26T21:14:35.557Z,21.40
2022-08-26T21:21:38.493Z,21.34
2022-08-26T21:28:41.886Z,21.30
2022-08-26T21:35:45.080Z,21.10
2022-08-26T21:42:48.198Z,20.90
2022-08-26T21:49:30.015Z,20.90
2022-08-26T21:56:33.213Z,20.80
2022-08-26T22:03:46.876Z,20.70
2022-08-26T22:10:48.792Z,20.50
2022-08-26T22:17:52.178Z,20.38
2022-08-26T22:24:55.162Z,20.30
2022-08-26T22:31:58.688Z,20.20
2022-08-26T22:39:01.570Z,20.28
2022-08-26T22:46:00.189Z,20.20
2022-08-26T22:53:03.734Z,20.16
2022-08-26T23:00:00.957Z,20.20
2022-08-26T23:07:07.078Z,20.10
2022-08-26T23:14:06.623Z,20.00
2022-08-26T23:21:10.140Z,19.82
2022-08-26T23:28:13.392Z,19.80
2022-08-26T23:35:16.838Z,19.80
2022-08-26T23:42:19.384Z,19.82
2022-08-26T23:49:22.498Z,19.70
2022-08-26T23:56:21.210Z,19.54
